createdAt,value
2022-08-25T00:00:28.381Z,1017.8
2022-08-25T00:01:44.561Z,1017.8
2022-08-25T00:03:00.507Z,1017.8
2022-08-25T00:04:16.697Z,1017.8
2022-08-25T00:05:33.133Z,1017.9
2022-08-25T00:06:49.322Z,1017.8
2022-08-25T00:08:04.523Z,1017.8
2022-08-25T00:09:20.730Z,1017.9
2022-08-25T00:10:36.669Z,1017.8
2022-08-25T00:11:53.090Z,1017.8
2022-08-25T00:13:09.036Z,1017.8
2022-08-25T00:14:25.477Z,1017.8
2022-08-25T00:15:41.664Z,1017.8
2022-08-25T00:16:57.596Z,1017.8
2022-08-25T00:18:13.793Z,1017.7
2022-08-25T00:19:29.973Z,1017.8
2022-08-25T00:20:46.163Z,1017.8
2022-08-25T00:22:02.363Z,1017.7
2022-08-25T00:23:18.793Z,1017.7
2022-08-25T00:24:33.996Z,1017.7
2022-08-25T00:25:49.936Z,1017.7
2022-08-25T00:27:06.373Z,1017.7
2022-08-25T00:28:22.574Z,1017.7
2022-08-25T00:29:38.746Z,1017.6
2022-08-25T00:30:54.941Z,1017.7
2022-08-25T00:32:10.878Z,1017.7
2022-08-25T00:33:27.314Z,1017.6
2022-08-25T00:34:43.507Z,1017.6
2022-08-25T00:35:59.707Z,1017.6
2022-08-25T00:37:15.894Z,1017.6
2022-08-25T00:38:32.074Z,1017.6
2022-08-25T00:39:48.257Z,1017.6
2022-08-25T00:41:03.221Z,1017.6
2022-08-25T00:42:19.660Z,1017.7
2022-08-25T00:43:35.854Z,1017.6
2022-08-25T00:44:52.038Z,1017.7
2022-08-25T00:46:08.220Z,1017.6
2022-08-25T00:47:24.419Z,1017.6
2022-08-25T00:48:40.364Z,1017.6
2022-08-25T00:49:56.801Z,1017.5
2022-08-25T00:51:12.986Z,1017.6
2022-08-25T00:52:28.915Z,1017.6
2022-08-25T00:53:45.355Z,1017.6
2022-08-25T00:55:01.551Z,1017.6
2022-08-25T00:56:17.744Z,1017.6
2022-08-25T00:57:32.687Z,1017.6
2022-08-25T00:58:48.875Z,1017.5
2022-08-25T01:00:05.318Z,1017.6
2022-08-25T01:01:21.522Z,1017.6
2022-08-25T01:02:37.702Z,1017.6
2022-08-25T01:03:53.635Z,1017.6
2022-08-25T01:05:10.072Z,1017.7
2022-08-25T01:06:26.007Z,1017.7
2022-08-25T01:07:42.456Z,1017.7
2022-08-25T01:08:58.654Z,1017.7
2022-08-25T01:10:14.592Z,1017.7
2022-08-25T01:11:31.028Z,1017.7
2022-08-25T01:12:47.222Z,1017.7
2022-08-25T01:14:02.431Z,1017.7
2022-08-25T01:15:18.607Z,1017.7
2022-08-25T01:16:34.800Z,1017.7
2022-08-25T01:17:50.998Z,1017.7
2022-08-25T01:19:06.917Z,1017.7
2022-08-25T01:20:23.375Z,1017.7
2022-08-25T01:21:39.556Z,1017.6
2022-08-25T01:22:55.754Z,1017.6
2022-08-25T01:24:11.932Z,1017.7
2022-08-25T01:25:28.126Z,1017.6
2022-08-25T01:26:44.303Z,1017.6
2022-08-25T01:28:00.497Z,1017.6
2022-08-25T01:29:16.681Z,1017.7
2022-08-25T01:30:31.888Z,1017.6
2022-08-25T01:31:48.089Z,1017.7
2022-08-25T01:33:04.011Z,1017.6
2022-08-25T01:34:20.196Z,1017.6
2022-08-25T01:35:36.659Z,1017.6
2022-08-25T01:36:52.576Z,1017.6
2022-08-25T01:38:09.033Z,1017.6
2022-08-25T01:39:25.214Z,1017.6
2022-08-25T01:40:41.414Z,1017.5
2022-08-25T01:41:57.328Z,1017.6
2022-08-25T01:43:13.784Z,1017.6
2022-08-25T01:44:29.979Z,1017.7
2022-08-25T01:45:46.174Z,1017.6
2022-08-25T01:47:01.364Z,1017.6
2022-08-25T01:48:17.000Z,1017.6
2022-08-25T01:49:33.479Z,1017.6
2022-08-25T01:50:49.942Z,1017.6
2022-08-25T01:52:05.869Z,1017.6
2022-08-25T01:53:22.311Z,1017.7
2022-08-25T01:54:38.508Z,1017.6
2022-08-25T01:55:54.697Z,1017.6
2022-08-25T01:57:10.610Z,1017.6
2022-08-25T01:58:26.815Z,1017.6
2022-08-25T01:59:43.255Z,1017.6
2022-08-25T02:00:59.446Z,1017.6
2022-08-25T02:02:15.368Z,1017.6
2022-08-25T02:03:30.000Z,1017.5
2022-08-25T02:04:47.040Z,1017.5
2022-08-25T02:06:03.216Z,1017.5
2022-08-25T02:07:19.411Z,1017.5
2022-08-25T02:08:35.609Z,1017.5
2022-08-25T02:09:51.533Z,1017.5
2022-08-25T02:11:07.970Z,1017.5
2022-08-25T02:12:23.907Z,1017.5
2022-08-25T02:13:40.085Z,1017.5
2022-08-25T02:14:56.545Z,1017.5
2022-08-25T02:16:12.728Z,1017.5
2022-08-25T02:17:28.919Z,1017.5
2022-08-25T02:18:45.113Z,1017.5
2022-08-25T02:20:00.052Z,1017.5
2022-08-25T02:21:16.514Z,1017.4
2022-08-25T02:22:32.693Z,1017.4
2022-08-25T02:23:48.885Z,1017.5
2022-08-25T02:25:04.796Z,1017.5
2022-08-25T02:26:21.270Z,1017.4
2022-08-25T02:27:37.187Z,1017.4
2022-08-25T02:28:53.650Z,1017.4
2022-08-25T02:30:09.828Z,1017.4
2022-08-25T02:31:26.028Z,1017.3
2022-08-25T02:32:41.946Z,1017.4
2022-08-25T02:33:58.391Z,1017.3
2022-08-25T02:35:14.584Z,1017.3
2022-08-25T02:36:29.804Z,1017.3
2022-08-25T02:37:45.992Z,1017.3
2022-08-25T02:39:01.889Z,1017.2
2022-08-25T02:40:18.349Z,1017.3
2022-08-25T02:41:34.541Z,1017.3
2022-08-25T02:42:50.453Z,1017.2
2022-08-25T02:44:06.927Z,1017.2
2022-08-25T02:45:22.827Z,1017.3
2022-08-25T02:46:39.294Z,1017.2
2022-08-25T02:47:55.200Z,1017.2
2022-08-25T02:49:11.664Z,1017.3
2022-08-25T02:50:27.863Z,1017.2
2022-08-25T02:51:44.034Z,1017.3
2022-08-25T02:52:59.252Z,1017.2
2022-08-25T02:54:15.426Z,1017.2
2022-08-25T02:55:31.630Z,1017.2
2022-08-25T02:56:47.820Z,1017.2
2022-08-25T02:58:03.713Z,1017.3
2022-08-25T02:59:20.179Z,1017.3
2022-08-25T03:00:36.363Z,1017.2
2022-08-25T03:01:52.563Z,1017.2
2022-08-25T03:03:08.743Z,1017.2
2022-08-25T03:04:24.931Z,1017.1
2022-08-25T03:05:40.842Z,1017.2
2022-08-25T03:06:57.300Z,1017.2
2022-08-25T03:08:13.494Z,1017.1
2022-08-25T03:09:28.705Z,1017.1
2022-08-25T03:10:44.877Z,1017.1
2022-08-25T03:12:01.083Z,1017.1
2022-08-25T03:13:16.988Z,1017.1
2022-08-25T03:14:33.447Z,1017.1
2022-08-25T03:15:49.639Z,1017.1
2022-08-25T03:17:05.815Z,1017.1
2022-08-25T03:18:22.021Z,1017.1
2022-08-25T03:19:38.203Z,1017.1
2022-08-25T03:20:54.097Z,1017.1
2022-08-25T03:22:10.571Z,1017.1
2022-08-25T03:23:26.760Z,1017.1
2022-08-25T03:24:42.956Z,1017
2022-08-25T03:25:57.868Z,1017.1
2022-08-25T03:27:14.063Z,1017
2022-08-25T03:28:30.237Z,1017.1
2022-08-25T03:29:46.708Z,1017.1
2022-08-25T03:31:02.900Z,1017
2022-08-25T03:32:19.090Z,1017
2022-08-25T03:33:35.273Z,1017.1
2022-08-25T03:34:51.455Z,1017
2022-08-25T03:36:07.371Z,1017
2022-08-25T03:37:23.558Z,1017
2022-08-25T03:38:40.030Z,1017
2022-08-25T03:39:56.207Z,1017
2022-08-25T03:41:12.393Z,1016.9
2022-08-25T03:42:27.320Z,1017
2022-08-25T03:43:43.502Z,1017
2022-08-25T03:44:59.989Z,1016.9
2022-08-25T03:46:16.171Z,1017
2022-08-25T03:47:32.344Z,1016.9
2022-08-25T03:48:48.535Z,1017
2022-08-25T03:50:03.756Z,1016.9
2022-08-25T03:51:19.646Z,1016.9
2022-08-25T03:52:35.828Z,1017.1
2022-08-25T03:53:52.318Z,1017
2022-08-25T03:55:08.206Z,1017
2022-08-25T03:56:24.402Z,1017
2022-08-25T03:57:40.878Z,1016.9
2022-08-25T03:58:56.782Z,1017
2022-08-25T04:00:13.253Z,1017
2022-08-25T04:01:29.436Z,1017
2022-08-25T04:02:45.618Z,1017
2022-08-25T04:04:01.514Z,1017.1
2022-08-25T04:05:17.993Z,1017.1
2022-08-25T04:06:32.912Z,1017.1
2022-08-25T04:07:49.399Z,1017.1
2022-08-25T04:09:05.586Z,1017.1
2022-08-25T04:10:21.764Z,1017.1
2022-08-25T04:11:37.956Z,1017.1
2022-08-25T04:12:54.130Z,1017.1
2022-08-25T04:14:10.029Z,1017.1
2022-08-25T04:15:26.514Z,1017.1
2022-08-25T04:16:42.699Z,1017
2022-08-25T04:17:58.881Z,1017.1
2022-08-25T04:19:15.085Z,1017.1
2022-08-25T04:20:30.978Z,1017.1
2022-08-25T04:21:47.163Z,1017.1
2022-08-25T04:23:02.656Z,1017.1
2022-08-25T04:24:18.835Z,1017.1
2022-08-25T04:25:35.024Z,1017.1
2022-08-25T04:26:51.206Z,1017.2
2022-08-25T04:28:07.408Z,1017.2
2022-08-25T04:29:23.585Z,1017.2
2022-08-25T04:30:39.782Z,1017.2
2022-08-25T04:31:55.966Z,1017.1
2022-08-25T04:33:12.145Z,1017.2
2022-08-25T04:34:28.043Z,1017.2
2022-08-25T04:35:44.534Z,1017.2
2022-08-25T04:37:00.413Z,1017.2
2022-08-25T04:38:16.899Z,1017.2
2022-08-25T04:39:32.097Z,1017.2
2022-08-25T04:40:48.292Z,1017.2
2022-08-25T04:42:04.473Z,1017.1
2022-08-25T04:43:20.677Z,1017.2
2022-08-25T04:44:36.853Z,1017.2
2022-08-25T04:45:53.038Z,1017.2
2022-08-25T04:47:09.222Z,1017.2
2022-08-25T04:48:25.419Z,1017.3
2022-08-25T04:49:41.605Z,1017.3
2022-08-25T04:50:57.787Z,1017.3
2022-08-25T04:52:13.980Z,1017.2
2022-08-25T04:53:30.168Z,1017.2
2022-08-25T04:54:46.360Z,1017.2
2022-08-25T04:56:01.552Z,1017.3
2022-08-25T04:57:17.737Z,1017.3
2022-08-25T04:58:33.624Z,1017.2
2022-08-25T04:59:50.125Z,1017.2
2022-08-25T05:01:06.305Z,1017.2
2022-08-25T05:02:22.496Z,1017.2
2022-08-25T05:03:38.387Z,1017.2
2022-08-25T05:04:54.877Z,1017.2
2022-08-25T05:06:11.057Z,1017.2
2022-08-25T05:07:26.945Z,1017.2
2022-08-25T05:08:43.426Z,1017.2
2022-08-25T05:09:59.612Z,1017.2
2022-08-25T05:11:15.492Z,1017.2
2022-08-25T05:12:31.016Z,1017.2
2022-08-25T05:13:47.207Z,1017.3
2022-08-25T05:15:03.077Z,1017.2
2022-08-25T05:16:19.575Z,1017.3
2022-08-25T05:17:35.759Z,1017.3
2022-08-25T05:18:51.633Z,1017.3
2022-08-25T05:20:08.141Z,1017.3
2022-08-25T05:21:24.008Z,1017.3
2022-08-25T05:22:40.207Z,1017.4
2022-08-25T05:23:56.693Z,1017.4
2022-08-25T05:25:12.891Z,1017.4
2022-08-25T05:26:29.068Z,1017.4
2022-08-25T05:27:45.268Z,1017.4
2022-08-25T05:29:00.462Z,1017.4
2022-08-25T05:30:16.346Z,1017.4
2022-08-25T05:31:32.834Z,1017.4
2022-08-25T05:32:49.021Z,1017.4
2022-08-25T05:34:05.212Z,1017.5
2022-08-25T05:35:21.088Z,1017.5
2022-08-25T05:36:37.591Z,1017.5
2022-08-25T05:37:53.763Z,1017.5
2022-08-25T05:39:09.967Z,1017.6
2022-08-25T05:40:25.838Z,1017.5
2022-08-25T05:41:42.017Z,1017.5
2022-08-25T05:42:58.530Z,1017.5
2022-08-25T05:44:14.720Z,1017.4
2022-08-25T05:45:29.921Z,1017.5
2022-08-25T05:46:46.098Z,1017.5
2022-08-25T05:48:02.279Z,1017.5
2022-08-25T05:49:18.173Z,1017.4
2022-08-25T05:50:34.000Z,1017.4
2022-08-25T05:51:50.861Z,1017.5
2022-08-25T05:53:07.032Z,1017.4
2022-08-25T05:54:23.228Z,1017.4
2022-08-25T05:55:39.419Z,1017.4
2022-08-25T05:56:55.604Z,1017.5
2022-08-25T05:58:11.796Z,1017.4
2022-08-25T05:59:27.982Z,1017.4
2022-08-25T06:00:44.120Z,1017.5
2022-08-25T06:01:59.316Z,1017.5
2022-08-25T06:03:15.517Z,1017.4
2022-08-25T06:04:31.692Z,1017.4
2022-08-25T06:05:47.936Z,1017.5
2022-08-25T06:07:04.062Z,1017.5
2022-08-25T06:08:20.247Z,1017.5
2022-08-25T06:09:36.500Z,1017.4
2022-08-25T06:10:52.686Z,1017.5
2022-08-25T06:12:08.860Z,1017.5
2022-08-25T06:13:25.047Z,1017.4
2022-08-25T06:14:41.186Z,1017.4
2022-08-25T06:15:57.437Z,1017.4
2022-08-25T06:17:13.622Z,1017.4
2022-08-25T06:18:28.822Z,1017.4
2022-08-25T06:19:45.007Z,1017.4
2022-08-25T06:21:01.195Z,1017.4
2022-08-25T06:22:17.379Z,1017.4
2022-08-25T06:23:33.528Z,1017.4
2022-08-25T06:24:49.755Z,1017.4
2022-08-25T06:26:05.951Z,1017.3
2022-08-25T06:27:22.085Z,1017.4
2022-08-25T06:28:38.315Z,1017.4
2022-08-25T06:29:54.460Z,1017.4
2022-08-25T06:31:10.646Z,1017.4
2022-08-25T06:32:26.881Z,1017.4
2022-08-25T06:33:43.023Z,1017.4
2022-08-25T06:34:58.264Z,1017.4
2022-08-25T06:36:14.461Z,1017.4
2022-08-25T06:37:30.590Z,1017.4
2022-08-25T06:38:46.838Z,1017.4
2022-08-25T06:40:02.973Z,1017.4
2022-08-25T06:41:19.202Z,1017.5
2022-08-25T06:42:35.393Z,1017.4
2022-08-25T06:43:51.588Z,1017.4
2022-08-25T06:45:07.771Z,1017.5
2022-08-25T06:46:23.962Z,1017.4
2022-08-25T06:47:40.144Z,1017.5
2022-08-25T06:48:56.324Z,1017.5
2022-08-25T06:50:12.456Z,1017.5
2022-08-25T06:51:27.668Z,1017.6
2022-08-25T06:52:43.917Z,1017.5
2022-08-25T06:54:00.035Z,1017.6
2022-08-25T06:55:16.293Z,1017.5
2022-08-25T06:56:32.463Z,1017.6
2022-08-25T06:57:48.650Z,1017.6
2022-08-25T06:59:04.788Z,1017.6
2022-08-25T07:00:21.041Z,1017.5
2022-08-25T07:01:37.166Z,1017.6
2022-08-25T07:02:53.414Z,1017.6
2022-08-25T07:04:09.591Z,1017.5
2022-08-25T07:05:25.783Z,1017.5
2022-08-25T07:06:41.965Z,1017.5
2022-08-25T07:07:57.171Z,1017.5
2022-08-25T07:09:13.361Z,1017.5
2022-08-25T07:10:29.553Z,1017.5
2022-08-25T07:11:45.734Z,1017.5
2022-08-25T07:13:01.926Z,1017.4
2022-08-25T07:14:18.118Z,1017.4
2022-08-25T07:15:34.302Z,1017.5
2022-08-25T07:16:50.427Z,1017.4
2022-08-25T07:18:06.608Z,1017.4
2022-08-25T07:19:22.806Z,1017.5
2022-08-25T07:20:39.053Z,1017.5
2022-08-25T07:21:55.228Z,1017.4
2022-08-25T07:23:11.433Z,1017.4
2022-08-25T07:24:26.556Z,1017.5
2022-08-25T07:25:42.763Z,1017.4
2022-08-25T07:26:59.001Z,1017.5
2022-08-25T07:28:15.186Z,1017.5
2022-08-25T07:29:31.308Z,1017.4
2022-08-25T07:30:47.571Z,1017.4
2022-08-25T07:32:03.696Z,1017.3
2022-08-25T07:33:19.945Z,1017.4
2022-08-25T07:34:36.132Z,1017.3
2022-08-25T07:35:52.306Z,1017.2
2022-08-25T07:37:08.496Z,1017.3
2022-08-25T07:38:24.000Z,1017.3
2022-08-25T07:39:40.885Z,1017.2
2022-08-25T07:40:56.089Z,1017.2
2022-08-25T07:42:12.203Z,1017.2
2022-08-25T07:43:28.380Z,1017.2
2022-08-25T07:44:44.647Z,1017.2
2022-08-25T07:46:00.822Z,1017.2
2022-08-25T07:47:17.017Z,1017.2
2022-08-25T07:48:33.212Z,1017.2
2022-08-25T07:49:49.316Z,1017.2
2022-08-25T07:51:05.581Z,1017.2
2022-08-25T07:52:21.772Z,1017.2
2022-08-25T07:53:37.950Z,1017.4
2022-08-25T07:54:54.067Z,1017.3
2022-08-25T07:56:10.334Z,1017.3
2022-08-25T07:57:25.466Z,1017.3
2022-08-25T07:58:41.729Z,1017.2
2022-08-25T07:59:57.916Z,1017.3
2022-08-25T08:01:14.088Z,1017.2
2022-08-25T08:02:30.222Z,1017.2
2022-08-25T08:03:46.474Z,1017.2
2022-08-25T08:05:01.685Z,1017.2
2022-08-25T08:06:17.873Z,1017.2
2022-08-25T08:07:34.053Z,1017.2
2022-08-25T08:08:50.174Z,1017.3
2022-08-25T08:10:06.366Z,1017.2
2022-08-25T08:11:22.607Z,1017.2
2022-08-25T08:12:38.799Z,1017.2
2022-08-25T08:13:54.988Z,1017.1
2022-08-25T08:15:11.173Z,1017.1
2022-08-25T08:16:27.373Z,1017.1
2022-08-25T08:17:43.561Z,1017.1
2022-08-25T08:18:59.744Z,1017.1
2022-08-25T08:20:15.854Z,1017.1
2022-08-25T08:21:31.064Z,1017.2
2022-08-25T08:22:47.238Z,1017.1
2022-08-25T08:24:03.499Z,1017.1
2022-08-25T08:25:19.700Z,1017.1
2022-08-25T08:26:35.879Z,1017.1
2022-08-25T08:27:52.060Z,1017.1
2022-08-25T08:29:08.253Z,1017.2
2022-08-25T08:30:24.364Z,1017.1
2022-08-25T08:31:40.631Z,1017.1
2022-08-25T08:32:56.750Z,1017.1
2022-08-25T08:34:12.993Z,1017.1
2022-08-25T08:35:29.192Z,1017.1
2022-08-25T08:36:45.293Z,1017.1
2022-08-25T08:38:00.584Z,1017.1
2022-08-25T08:39:16.770Z,1017.1
2022-08-25T08:40:32.888Z,1017
2022-08-25T08:41:49.060Z,1017
2022-08-25T08:43:05.265Z,1017.1
2022-08-25T08:44:21.443Z,1017
2022-08-25T08:45:37.634Z,1017
2022-08-25T08:46:53.824Z,1017
2022-08-25T08:48:10.078Z,1017
2022-08-25T08:49:26.264Z,1016.9
2022-08-25T08:50:42.370Z,1017
2022-08-25T08:51:58.638Z,1016.9
2022-08-25T08:53:14.834Z,1016.9
2022-08-25T08:54:30.043Z,1016.9
2022-08-25T08:55:46.138Z,1016.9
2022-08-25T08:57:02.407Z,1016.9
2022-08-25T08:58:18.604Z,1016.9
2022-08-25T08:59:34.775Z,1016.9
2022-08-25T09:00:50.893Z,1016.9
2022-08-25T09:02:07.087Z,1016.9
2022-08-25T09:03:23.261Z,1017
2022-08-25T09:04:39.543Z,1016.9
2022-08-25T09:05:55.634Z,1016.9
2022-08-25T09:07:11.918Z,1016.9
2022-08-25T09:08:28.103Z,1016.9
2022-08-25T09:09:44.192Z,1016.9
2022-08-25T09:10:59.406Z,1016.9
2022-08-25T09:12:15.591Z,1016.9
2022-08-25T09:13:31.871Z,1016.8
2022-08-25T09:14:47.975Z,1016.9
2022-08-25T09:16:04.233Z,1016.9
2022-08-25T09:17:20.428Z,1016.9
2022-08-25T09:18:36.602Z,1016.9
2022-08-25T09:19:52.720Z,1016.9
2022-08-25T09:21:08.978Z,1016.9
2022-08-25T09:22:25.180Z,1016.8
2022-08-25T09:23:41.365Z,1016.8
2022-08-25T09:24:57.462Z,1016.8
2022-08-25T09:26:13.660Z,1016.8
2022-08-25T09:27:28.931Z,1016.8
2022-08-25T09:28:45.135Z,1016.8
2022-08-25T09:30:01.315Z,1016.8
2022-08-25T09:31:17.408Z,1016.8
2022-08-25T09:32:33.684Z,1016.7
2022-08-25T09:33:49.794Z,1016.7
2022-08-25T09:35:06.062Z,1016.7
2022-08-25T09:36:22.247Z,1016.7
2022-08-25T09:37:38.351Z,1016.7
2022-08-25T09:38:54.542Z,1016.6
2022-08-25T09:40:10.816Z,1016.6
2022-08-25T09:41:26.923Z,1016.7
2022-08-25T09:42:43.199Z,1016.6
2022-08-25T09:43:58.312Z,1016.6
2022-08-25T09:45:14.580Z,1016.6
2022-08-25T09:46:30.765Z,1016.6
2022-08-25T09:47:46.859Z,1016.6
2022-08-25T09:49:03.057Z,1016.6
2022-08-25T09:50:19.231Z,1016.5
2022-08-25T09:51:35.424Z,1016.6
2022-08-25T09:52:51.712Z,1016.6
2022-08-25T09:54:07.896Z,1016.6
2022-08-25T09:55:24.082Z,1016.6
2022-08-25T09:56:40.181Z,1016.6
2022-08-25T09:57:56.456Z,1016.5
2022-08-25T09:59:12.560Z,1016.5
2022-08-25T10:00:27.849Z,1016.5
2022-08-25T10:01:44.036Z,1016.5
2022-08-25T10:03:00.220Z,1016.5
2022-08-25T10:04:16.326Z,1016.5
2022-08-25T10:05:32.593Z,1016.5
2022-08-25T10:06:48.681Z,1016.5
2022-08-25T10:08:04.976Z,1016.4
2022-08-25T10:09:21.065Z,1016.5
2022-08-25T10:10:37.255Z,1016.4
2022-08-25T10:11:53.444Z,1016.5
2022-08-25T10:13:09.730Z,1016.4
2022-08-25T10:14:25.823Z,1016.4
2022-08-25T10:15:41.999Z,1016.4
2022-08-25T10:16:57.295Z,1016.4
2022-08-25T10:18:13.477Z,1016.4
2022-08-25T10:19:29.582Z,1016.4
2022-08-25T10:20:45.852Z,1016.3
2022-08-25T10:22:01.957Z,1016.3
2022-08-25T10:23:18.132Z,1016.3
2022-08-25T10:24:34.430Z,1016.3
2022-08-25T10:25:50.000Z,1016.4
2022-08-25T10:27:06.791Z,1016.3
2022-08-25T10:28:22.979Z,1016.3
2022-08-25T10:29:39.079Z,1016.3
2022-08-25T10:30:55.360Z,1016.3
2022-08-25T10:32:11.554Z,1016.3
2022-08-25T10:33:26.752Z,1016.3
2022-08-25T10:34:42.936Z,1016.3
2022-08-25T10:35:59.137Z,1016.3
2022-08-25T10:37:15.308Z,1016.3
2022-08-25T10:38:31.492Z,1016.4
2022-08-25T10:39:47.688Z,1016.3
2022-08-25T10:41:03.769Z,1016.3
2022-08-25T10:42:20.063Z,1016.3
2022-08-25T10:43:36.249Z,1016.3
2022-08-25T10:44:52.439Z,1016.3
2022-08-25T10:46:08.633Z,1016.2
2022-08-25T10:47:24.706Z,1016.2
2022-08-25T10:48:40.892Z,1016.1
2022-08-25T10:49:56.109Z,1016.2
2022-08-25T10:51:12.302Z,1016.1
2022-08-25T10:52:28.572Z,1016
2022-08-25T10:53:44.774Z,1016.1
2022-08-25T10:55:00.945Z,1016
2022-08-25T10:56:17.038Z,1015.9
2022-08-25T10:57:33.220Z,1015.9
2022-08-25T10:58:49.515Z,1015.9
2022-08-25T11:00:05.607Z,1015.9
2022-08-25T11:01:21.903Z,1015.8
2022-08-25T11:02:38.082Z,1015.9
2022-08-25T11:03:54.259Z,1015.9
2022-08-25T11:05:10.342Z,1015.9
2022-08-25T11:06:25.663Z,1015.8
2022-08-25T11:07:41.851Z,1015.8
2022-08-25T11:08:58.025Z,1015.8
2022-08-25T11:10:14.219Z,1015.8
2022-08-25T11:11:30.417Z,1015.8
2022-08-25T11:12:46.603Z,1015.8
2022-08-25T11:14:02.780Z,1015.8
2022-08-25T11:15:18.965Z,1015.8
2022-08-25T11:16:35.149Z,1015.8
2022-08-25T11:17:51.231Z,1015.7
2022-08-25T11:19:07.529Z,1015.7
2022-08-25T11:20:23.611Z,1015.7
2022-08-25T11:21:39.799Z,1015.8
2022-08-25T11:22:55.006Z,1015.7
2022-08-25T11:24:11.302Z,1015.7
2022-08-25T11:25:27.490Z,1015.8
2022-08-25T11:26:43.683Z,1015.7
2022-08-25T11:27:59.755Z,1015.7
2022-08-25T11:29:16.046Z,1015.6
2022-08-25T11:30:32.135Z,1015.6
2022-08-25T11:31:48.321Z,1015.6
2022-08-25T11:33:04.609Z,1015.6
2022-08-25T11:34:20.798Z,1015.6
2022-08-25T11:35:36.990Z,1015.6
2022-08-25T11:36:53.169Z,1015.6
2022-08-25T11:38:09.354Z,1015.7
2022-08-25T11:39:24.571Z,1015.6
2022-08-25T11:40:40.647Z,1015.6
2022-08-25T11:41:56.933Z,1015.6
2022-08-25T11:43:13.014Z,1015.5
2022-08-25T11:44:29.215Z,1015.5
2022-08-25T11:45:45.500Z,1015.4
2022-08-25T11:47:01.684Z,1015.4
2022-08-25T11:48:17.768Z,1015.4
2022-08-25T11:49:34.066Z,1015.5
2022-08-25T11:50:50.150Z,1015.5
2022-08-25T11:52:06.436Z,1015.5
2022-08-25T11:53:22.627Z,1015.5
2022-08-25T11:54:38.820Z,1015.5
2022-08-25T11:55:54.023Z,1015.4
2022-08-25T11:57:10.096Z,1015.5
2022-08-25T11:58:26.392Z,1015.4
2022-08-25T11:59:42.583Z,1015.4
2022-08-25T12:00:58.763Z,1015.3
2022-08-25T12:02:14.964Z,1015.4
2022-08-25T12:03:31.155Z,1015.4
2022-08-25T12:04:47.211Z,1015.4
2022-08-25T12:06:03.405Z,1015.3
2022-08-25T12:07:19.587Z,1015.3
2022-08-25T12:08:35.888Z,1015.2
2022-08-25T12:09:51.968Z,1015.3
2022-08-25T12:11:08.266Z,1015.2
2022-08-25T12:12:23.369Z,1015.1
2022-08-25T12:13:39.674Z,1015
2022-08-25T12:14:55.861Z,1015.1
2022-08-25T12:16:12.037Z,1015.1
2022-08-25T12:17:28.228Z,1015
2022-08-25T12:18:44.416Z,1015.1
2022-08-25T12:19:59.620Z,1015.1
2022-08-25T12:21:15.700Z,1015.1
2022-08-25T12:22:32.001Z,1015.1
2022-08-25T12:23:48.081Z,1015.1
2022-08-25T12:25:04.391Z,1015.1
2022-08-25T12:26:20.584Z,1015.1
2022-08-25T12:27:36.756Z,1015
2022-08-25T12:28:52.838Z,1015
2022-08-25T12:30:09.143Z,1014.9
2022-08-25T12:31:25.340Z,1014.8
2022-08-25T12:32:41.407Z,1014.9
2022-08-25T12:33:57.716Z,1014.9
2022-08-25T12:35:13.776Z,1015
2022-08-25T12:36:28.975Z,1014.9
2022-08-25T12:37:45.303Z,1014.9
2022-08-25T12:39:01.484Z,1014.9
2022-08-25T12:40:17.683Z,1014.8
2022-08-25T12:41:33.864Z,1014.8
2022-08-25T12:42:50.063Z,1014.8
2022-08-25T12:44:06.112Z,1014.7
2022-08-25T12:45:22.423Z,1014.7
2022-08-25T12:46:38.614Z,1014.6
2022-08-25T12:47:54.689Z,1014.6
2022-08-25T12:49:10.993Z,1014.7
2022-08-25T12:50:27.183Z,1014.7
2022-08-25T12:51:43.263Z,1014.6
2022-08-25T12:52:58.576Z,1014.7
2022-08-25T12:54:14.779Z,1014.6
2022-08-25T12:55:30.970Z,1014.6
2022-08-25T12:56:47.155Z,1014.7
2022-08-25T12:58:03.341Z,1014.8
2022-08-25T12:59:19.413Z,1014.7
2022-08-25T13:00:35.588Z,1014.6
2022-08-25T13:01:51.913Z,1014.6
2022-08-25T13:03:08.102Z,1014.6
2022-08-25T13:04:24.289Z,1014.6
2022-08-25T13:05:40.484Z,1014.7
2022-08-25T13:06:56.548Z,1014.6
2022-08-25T13:08:12.730Z,1014.7
2022-08-25T13:09:28.062Z,1014.6
2022-08-25T13:10:44.126Z,1014.6
2022-08-25T13:12:00.449Z,1014.6
2022-08-25T13:13:16.506Z,1014.6
2022-08-25T13:14:32.813Z,1014.6
2022-08-25T13:15:48.866Z,1014.6
2022-08-25T13:17:05.196Z,1014.6
2022-08-25T13:18:21.384Z,1014.6
2022-08-25T13:19:37.582Z,1014.6
2022-08-25T13:20:53.756Z,1014.6
2022-08-25T13:22:09.953Z,1014.6
2022-08-25T13:23:26.138Z,1014.5
2022-08-25T13:24:42.339Z,1014.5
2022-08-25T13:25:57.527Z,1014.5
2022-08-25T13:27:13.730Z,1014.5
2022-08-25T13:28:29.914Z,1014.5
2022-08-25T13:29:45.967Z,1014.5
2022-08-25T13:31:02.298Z,1014.6
2022-08-25T13:32:18.483Z,1014.5
2022-08-25T13:33:34.662Z,1014.5
2022-08-25T13:34:50.858Z,1014.5
2022-08-25T13:36:07.059Z,1014.4
2022-08-25T13:37:23.099Z,1014.4
2022-08-25T13:38:39.295Z,1014.4
2022-08-25T13:39:55.616Z,1014.3
2022-08-25T13:41:11.812Z,1014.3
2022-08-25T13:42:27.002Z,1014.3
2022-08-25T13:43:43.194Z,1014.3
2022-08-25T13:44:59.399Z,1014.3
2022-08-25T13:46:15.442Z,1014.3
2022-08-25T13:47:31.768Z,1014.3
2022-08-25T13:48:47.815Z,1014.3
2022-08-25T13:50:04.005Z,1014.3
2022-08-25T13:51:20.200Z,1014.2
2022-08-25T13:52:36.394Z,1014.2
2022-08-25T13:53:52.723Z,1014.2
2022-08-25T13:55:08.758Z,1014.2
2022-08-25T13:56:25.090Z,1014.2
2022-08-25T13:57:41.152Z,1014.1
2022-08-25T13:58:56.481Z,1014.2
2022-08-25T14:00:12.537Z,1014.1
2022-08-25T14:01:28.735Z,1014.2
2022-08-25T14:02:45.057Z,1014.1
2022-08-25T14:04:01.109Z,1014.2
2022-08-25T14:05:17.434Z,1014.1
2022-08-25T14:06:33.619Z,1014.1
2022-08-25T14:07:49.683Z,1014.1
2022-08-25T14:09:05.997Z,1014.1
2022-08-25T14:10:22.200Z,1014.1
2022-08-25T14:11:38.235Z,1014.1
2022-08-25T14:12:54.562Z,1014
2022-08-25T14:14:10.762Z,1014.1
2022-08-25T14:15:25.972Z,1014.2
2022-08-25T14:16:42.007Z,1014.2
2022-08-25T14:17:58.336Z,1014.1
2022-08-25T14:19:14.538Z,1014.1
2022-08-25T14:20:30.730Z,1014.1
2022-08-25T14:21:46.907Z,1014.1
2022-08-25T14:23:03.095Z,1014
2022-08-25T14:24:19.292Z,1014
2022-08-25T14:25:35.486Z,1014
2022-08-25T14:26:51.664Z,1014
2022-08-25T14:28:07.860Z,1014
2022-08-25T14:29:23.907Z,1013.9
2022-08-25T14:30:40.082Z,1013.9
2022-08-25T14:31:55.440Z,1013.9
2022-08-25T14:33:11.625Z,1014
2022-08-25T14:34:27.814Z,1013.9
2022-08-25T14:35:44.008Z,1013.9
2022-08-25T14:37:00.206Z,1013.9
2022-08-25T14:38:16.241Z,1013.9
2022-08-25T14:39:32.583Z,1013.8
2022-08-25T14:40:48.764Z,1013.8
2022-08-25T14:42:04.822Z,1013.8
2022-08-25T14:43:21.154Z,1013.8
2022-08-25T14:44:37.329Z,1013.8
2022-08-25T14:45:53.528Z,1013.8
2022-08-25T14:47:09.708Z,1013.8
2022-08-25T14:48:24.922Z,1013.8
2022-08-25T14:49:41.102Z,1013.7
2022-08-25T14:50:57.305Z,1013.7
2022-08-25T14:52:13.494Z,1013.7
2022-08-25T14:53:29.683Z,1013.7
2022-08-25T14:54:45.723Z,1013.7
2022-08-25T14:56:02.057Z,1013.7
2022-08-25T14:57:18.255Z,1013.6
2022-08-25T14:58:34.436Z,1013.6
2022-08-25T14:59:50.623Z,1013.6
2022-08-25T15:01:06.818Z,1013.6
2022-08-25T15:02:23.001Z,1013.6
2022-08-25T15:03:39.204Z,1013.6
2022-08-25T15:04:54.400Z,1013.6
2022-08-25T15:06:10.582Z,1013.6
2022-08-25T15:07:26.784Z,1013.5
2022-08-25T15:08:42.828Z,1013.6
2022-08-25T15:09:59.149Z,1013.5
2022-08-25T15:11:15.341Z,1013.6
2022-08-25T15:12:31.544Z,1013.5
2022-08-25T15:13:47.725Z,1013.6
2022-08-25T15:15:03.911Z,1013.6
2022-08-25T15:16:20.111Z,1013.5
2022-08-25T15:17:36.295Z,1013.5
2022-08-25T15:18:52.492Z,1013.5
2022-08-25T15:20:08.517Z,1013.5
2022-08-25T15:21:23.880Z,1013.5
2022-08-25T15:22:40.079Z,1013.5
2022-08-25T15:23:56.250Z,1013.5
2022-08-25T15:25:12.444Z,1013.5
2022-08-25T15:26:28.477Z,1013.5
2022-08-25T15:27:44.829Z,1013.5
2022-08-25T15:29:01.006Z,1013.5
2022-08-25T15:30:17.200Z,1013.5
2022-08-25T15:31:33.234Z,1013.5
2022-08-25T15:32:49.428Z,1013.5
2022-08-25T15:34:05.622Z,1013.5
2022-08-25T15:35:21.960Z,1013.5
2022-08-25T15:36:38.160Z,1013.4
2022-08-25T15:37:53.351Z,1013.4
2022-08-25T15:39:09.389Z,1013.3
2022-08-25T15:40:25.577Z,1013.3
2022-08-25T15:41:41.764Z,1013.3
2022-08-25T15:42:58.109Z,1013.4
2022-08-25T15:44:14.301Z,1013.3
2022-08-25T15:45:30.324Z,1013.3
2022-08-25T15:46:46.524Z,1013.4
2022-08-25T15:48:02.703Z,1013.3
2022-08-25T15:49:18.911Z,1013.3
2022-08-25T15:50:35.253Z,1013.3
2022-08-25T15:51:51.445Z,1013.3
2022-08-25T15:53:07.632Z,1013.3